createdAt,value
2024-02-19T00:02:39.411Z,-2.03
2024-02-19T00:05:24.551Z,-2.12
2024-02-19T00:08:09.599Z,-2.12
2024-02-19T00:10:54.656Z,-2.30
2024-02-19T00:13:39.859Z,-2.34
2024-02-19T00:16:24.982Z,-2.33
2024-02-19T00:19:10.813Z,-2.30
2024-02-19T00:21:55.589Z,-2.30
2024-02-19T00:24:40.736Z,-2.41
2024-02-19T00:27:26.476Z,-2.46
2024-02-19T00:30:12.168Z,-2.39
2024-02-19T00:32:57.489Z,-2.45
2024-02-19T00:35:42.164Z,-2.55
2024-02-19T00:38:27.065Z,-2.45
2024-02-19T00:41:12.890Z,-2.51
2024-02-19T00:43:57.652Z,-2.55
2024-02-19T00:46:42.694Z,-2.50
2024-02-19T00:49:28.037Z,-2.52
2024-02-19T00:52:13.203Z,-2.44
2024-02-19T00:54:58.398Z,-2.41
2024-02-19T00:57:43.473Z,-2.40
2024-02-19T01:00:28.622Z,-2.40
2024-02-19T01:03:13.905Z,-2.31
2024-02-19T01:05:59.166Z,-2.30
2024-02-19T01:08:43.902Z,-2.40
2024-02-19T01:11:28.991Z,-2.46
2024-02-19T01:14:13.854Z,-2.48
2024-02-19T01:16:58.815Z,-2.53
2024-02-19T01:19:45.493Z,-2.68
2024-02-19T01:22:30.735Z,-2.67
2024-02-19T01:25:15.818Z,-2.73
2024-02-19T01:28:00.789Z,-2.74
2024-02-19T01:30:45.937Z,-2.79
2024-02-19T01:33:31.540Z,-2.81
2024-02-19T01:36:16.693Z,-2.83
2024-02-19T01:39:02.122Z,-2.80
2024-02-19T01:41:47.160Z,-2.86
2024-02-19T01:44:32.354Z,-2.83
2024-02-19T01:47:18.529Z,-2.83
2024-02-19T01:50:04.415Z,-2.76
2024-02-19T01:52:51.496Z,-2.80
2024-02-19T01:55:38.288Z,-2.79
2024-02-19T01:58:23.550Z,-2.88
2024-02-19T02:01:08.636Z,-2.89
2024-02-19T02:03:55.031Z,-2.85
2024-02-19T02:06:40.442Z,-2.89
2024-02-19T02:09:25.519Z,-2.89
2024-02-19T02:12:12.058Z,-2.91
2024-02-19T02:14:57.196Z,-2.94
2024-02-19T02:17:44.247Z,-3.01
2024-02-19T02:20:30.904Z,-2.95
2024-02-19T02:23:16.575Z,-3.11
2024-02-19T02:26:01.435Z,-3.05
2024-02-19T02:28:46.273Z,-3.05
2024-02-19T02:31:32.550Z,-3.17
2024-02-19T02:34:17.696Z,-3.25
2024-02-19T02:37:03.057Z,-3.21
2024-02-19T02:39:47.858Z,-3.28
2024-02-19T02:42:33.799Z,-3.23
2024-02-19T02:45:18.885Z,-3.19
2024-02-19T02:48:04.185Z,-3.17
2024-02-19T02:50:48.938Z,-3.24
2024-02-19T02:53:34.092Z,-3.18
2024-02-19T02:56:22.687Z,-3.17
2024-02-19T02:59:07.468Z,-3.25
2024-02-19T03:01:52.723Z,-3.23
2024-02-19T03:04:37.579Z,-3.32
2024-02-19T03:07:25.219Z,-3.35
2024-02-19T03:10:11.876Z,-3.37
2024-02-19T03:12:56.911Z,-3.36
2024-02-19T03:15:42.021Z,-3.39
2024-02-19T03:18:27.421Z,-3.42
2024-02-19T03:21:15.988Z,-3.29
2024-02-19T03:24:00.817Z,-3.37
2024-02-19T03:26:45.754Z,-3.41
2024-02-19T03:29:30.876Z,-3.39
2024-02-19T03:32:15.774Z,-3.41
2024-02-19T03:35:00.948Z,-3.45
2024-02-19T03:37:46.943Z,-3.47
2024-02-19T03:40:31.504Z,-3.59
2024-02-19T03:43:17.708Z,-3.62
2024-02-19T03:46:04.835Z,-3.58
2024-02-19T03:48:49.881Z,-3.65
2024-02-19T03:51:34.771Z,-3.67
2024-02-19T03:54:19.680Z,-3.70
2024-02-19T03:57:05.243Z,-3.67
2024-02-19T03:59:50.554Z,-3.67
2024-02-19T04:02:35.663Z,-3.66
2024-02-19T04:05:20.680Z,-3.63
2024-02-19T04:08:07.299Z,-3.65
2024-02-19T04:10:53.765Z,-3.68
2024-02-19T04:13:38.719Z,-3.63
2024-02-19T04:16:23.458Z,-3.62
2024-02-19T04:19:09.290Z,-3.61
2024-02-19T04:21:54.429Z,-3.65
2024-02-19T04:24:39.854Z,-3.65
2024-02-19T04:27:24.674Z,-3.65
2024-02-19T04:30:09.849Z,-3.68
2024-02-19T04:32:54.572Z,-3.53
2024-02-19T04:35:39.529Z,-3.64
2024-02-19T04:38:24.574Z,-3.52
2024-02-19T04:41:09.217Z,-3.50
2024-02-19T04:43:54.213Z,-3.51
2024-02-19T04:46:39.638Z,-3.50
2024-02-19T04:49:24.770Z,-3.47
2024-02-19T04:52:09.672Z,-3.44
2024-02-19T04:54:54.571Z,-3.45
2024-02-19T04:57:40.634Z,-3.41
2024-02-19T05:00:26.770Z,-3.41
2024-02-19T05:03:13.027Z,-3.32
2024-02-19T05:05:59.634Z,-3.27
2024-02-19T05:08:44.992Z,-3.25
2024-02-19T05:11:31.009Z,-3.23
2024-02-19T05:14:15.883Z,-3.25
2024-02-19T05:17:01.145Z,-3.18
2024-02-19T05:19:47.029Z,-3.14
2024-02-19T05:22:32.244Z,-2.98
2024-02-19T05:25:18.602Z,-3.01
2024-02-19T05:28:03.922Z,-2.93
2024-02-19T05:30:49.271Z,-2.90
2024-02-19T05:33:33.942Z,-2.83
2024-02-19T05:36:19.003Z,-2.79
2024-02-19T05:39:04.988Z,-2.71
2024-02-19T05:41:49.828Z,-2.66
2024-02-19T05:44:35.200Z,-2.61
2024-02-19T05:47:21.208Z,-2.50
2024-02-19T05:50:10.196Z,-2.47
2024-02-19T05:52:55.570Z,-2.39
2024-02-19T05:55:40.700Z,-2.29
2024-02-19T05:58:26.040Z,-2.18
2024-02-19T06:01:12.253Z,-2.08
2024-02-19T06:03:57.407Z,-1.95
2024-02-19T06:06:47.164Z,-1.75
2024-02-19T06:09:32.321Z,-1.37
2024-02-19T06:12:17.505Z,-1.19
2024-02-19T06:15:03.480Z,-0.91
2024-02-19T06:17:50.273Z,-0.56
2024-02-19T06:20:37.500Z,-0.21
2024-02-19T06:23:25.375Z,0.11
2024-02-19T06:26:13.201Z,0.44
2024-02-19T06:29:12.150Z,0.71
2024-02-19T06:32:04.322Z,0.71
2024-02-19T06:35:22.252Z,0.94
2024-02-19T06:38:07.730Z,0.90
2024-02-19T06:41:03.291Z,0.78
2024-02-19T06:43:58.415Z,0.59
2024-02-19T06:46:48.522Z,0.51
2024-02-19T06:49:35.165Z,0.43
2024-02-19T06:52:33.206Z,0.37
2024-02-19T06:57:56.785Z,0.41
2024-02-19T07:00:13.091Z,0.44
2024-02-19T07:03:16.500Z,0.75
2024-02-19T07:06:03.784Z,0.74
2024-02-19T07:08:53.571Z,1.14
2024-02-19T07:12:05.541Z,1.56
2024-02-19T07:14:58.693Z,2.23
2024-02-19T07:17:47.150Z,2.58
2024-02-19T07:20:37.120Z,3.00
2024-02-19T07:23:42.260Z,3.36
2024-02-19T07:26:52.533Z,3.46
2024-02-19T07:29:46.186Z,3.71
2024-02-19T07:32:32.109Z,3.97
2024-02-19T07:35:17.566Z,3.94
2024-02-19T07:38:06.474Z,3.87
2024-02-19T07:40:59.789Z,3.79
2024-02-19T07:43:45.874Z,3.96
2024-02-19T07:46:37.958Z,4.11
2024-02-19T07:49:30.122Z,4.58
2024-02-19T07:52:19.510Z,4.71
2024-02-19T07:55:12.112Z,5.12
2024-02-19T07:58:05.094Z,5.26
2024-02-19T08:00:51.593Z,5.35
2024-02-19T08:03:36.857Z,5.58
2024-02-19T08:06:26.744Z,5.32
2024-02-19T08:09:11.978Z,5.37
2024-02-19T08:11:59.275Z,5.40
2024-02-19T08:14:46.991Z,5.48
2024-02-19T08:17:36.421Z,5.01
2024-02-19T08:20:38.194Z,5.55
2024-02-19T08:23:33.264Z,5.58
2024-02-19T08:26:46.849Z,6.07
2024-02-19T08:29:33.149Z,6.23
2024-02-19T08:32:35.305Z,6.51
2024-02-19T08:35:23.444Z,6.73
2024-02-19T08:38:18.801Z,7.39
2024-02-19T08:41:04.313Z,7.53
2024-02-19T08:43:52.655Z,7.36
2024-02-19T08:46:37.992Z,7.35
2024-02-19T08:49:24.946Z,7.38
2024-02-19T08:52:19.841Z,7.49
2024-02-19T08:55:16.387Z,7.44
2024-02-19T08:58:01.890Z,7.40
2024-02-19T09:01:19.632Z,7.43
2024-02-19T09:04:09.210Z,7.29
2024-02-19T09:07:14.979Z,6.86
2024-02-19T09:10:09.352Z,7.12
2024-02-19T09:16:30.793Z,6.97
2024-02-19T09:19:46.819Z,6.73
2024-02-19T09:22:35.944Z,6.32
2024-02-19T09:25:27.962Z,6.01
2024-02-19T09:28:16.478Z,5.75
2024-02-19T09:31:21.764Z,5.37
2024-02-19T09:34:10.382Z,5.17
2024-02-19T09:36:56.083Z,5.28
2024-02-19T09:40:05.379Z,5.40
2024-02-19T09:42:54.813Z,5.50
2024-02-19T09:45:40.736Z,5.63
2024-02-19T09:48:26.845Z,5.75
2024-02-19T09:51:21.662Z,5.95
2024-02-19T09:54:23.454Z,6.07
2024-02-19T09:57:11.106Z,6.13
2024-02-19T10:00:05.676Z,6.53
2024-02-19T10:02:55.345Z,6.91
2024-02-19T10:05:48.526Z,6.96
2024-02-19T10:08:36.103Z,7.17
2024-02-19T10:11:21.210Z,7.24
2024-02-19T10:14:07.039Z,7.44
2024-02-19T10:16:52.820Z,7.84
2024-02-19T10:19:39.219Z,8.56
2024-02-19T10:22:25.237Z,9.04
2024-02-19T10:25:12.631Z,9.07
2024-02-19T10:27:57.722Z,9.18
2024-02-19T10:30:43.756Z,9.13
2024-02-19T10:33:28.616Z,8.84
2024-02-19T10:36:20.342Z,8.71
2024-02-19T10:39:06.157Z,8.35
2024-02-19T10:41:51.213Z,8.20
2024-02-19T10:44:36.565Z,7.96
2024-02-19T10:47:22.474Z,8.02
2024-02-19T10:50:09.130Z,8.09
2024-02-19T10:52:54.450Z,8.31
2024-02-19T10:55:52.996Z,8.75
2024-02-19T10:59:00.160Z,8.94
2024-02-19T11:01:48.683Z,8.68
2024-02-19T11:04:35.282Z,8.94
2024-02-19T11:07:22.115Z,8.99
2024-02-19T11:10:07.877Z,8.81
2024-02-19T11:12:53.972Z,8.79
2024-02-19T11:15:42.839Z,8.15
2024-02-19T11:18:30.676Z,8.26
2024-02-19T11:21:23.721Z,8.02
2024-02-19T11:24:09.473Z,8.28
2024-02-19T11:26:55.917Z,8.02
2024-02-19T11:29:47.485Z,8.01
2024-02-19T11:32:33.469Z,7.71
2024-02-19T11:35:18.299Z,7.69
2024-02-19T11:38:04.217Z,7.73
2024-02-19T11:40:50.812Z,7.60
2024-02-19T11:43:37.066Z,7.80
2024-02-19T11:46:23.037Z,8.03
2024-02-19T11:49:09.484Z,8.17
2024-02-19T11:52:04.997Z,8.39
2024-02-19T11:54:56.026Z,8.41
2024-02-19T11:57:43.651Z,8.37
2024-02-19T12:00:33.180Z,8.52
2024-02-19T12:03:18.322Z,8.72
2024-02-19T12:06:03.930Z,8.84
2024-02-19T12:08:49.764Z,9.18
2024-02-19T12:11:36.666Z,9.37
2024-02-19T12:14:21.912Z,9.37
2024-02-19T12:17:07.822Z,9.48
2024-02-19T12:19:57.036Z,9.19
2024-02-19T12:22:42.784Z,9.21
2024-02-19T12:25:27.693Z,8.96
2024-02-19T12:28:12.934Z,8.91
2024-02-19T12:30:57.706Z,8.59
2024-02-19T12:33:43.475Z,8.39
2024-02-19T12:36:28.701Z,8.14
2024-02-19T12:39:32.494Z,7.79
2024-02-19T12:42:17.930Z,7.37
2024-02-19T12:45:06.208Z,7.01
2024-02-19T12:47:52.956Z,6.79
2024-02-19T12:50:37.852Z,6.74
2024-02-19T12:53:22.608Z,6.62
2024-02-19T12:56:07.837Z,6.45
2024-02-19T12:58:52.446Z,6.32
2024-02-19T13:01:37.765Z,6.47
2024-02-19T13:04:26.250Z,6.52
2024-02-19T13:07:15.770Z,6.51
2024-02-19T13:10:01.000Z,6.63
2024-02-19T13:12:45.836Z,6.59
2024-02-19T13:15:30.732Z,6.63
2024-02-19T13:18:15.665Z,6.73
2024-02-19T13:21:00.638Z,6.68
2024-02-19T13:23:45.740Z,6.59
2024-02-19T13:26:30.579Z,6.71
2024-02-19T13:29:16.206Z,6.59
2024-02-19T13:32:01.400Z,6.74
2024-02-19T13:34:46.370Z,6.77
2024-02-19T13:37:31.342Z,6.49
2024-02-19T13:40:16.446Z,6.26
2024-02-19T13:43:01.869Z,6.15
2024-02-19T13:46:01.372Z,5.96
2024-02-19T13:48:58.405Z,5.73
2024-02-19T13:51:43.456Z,5.73
2024-02-19T13:54:28.872Z,5.96
2024-02-19T13:57:14.211Z,5.94
2024-02-19T13:59:59.848Z,5.85
2024-02-19T14:02:45.067Z,5.78
2024-02-19T14:05:31.629Z,5.69
2024-02-19T14:08:17.907Z,5.62
2024-02-19T14:11:02.983Z,5.49
2024-02-19T14:13:55.029Z,5.39
2024-02-19T14:16:46.388Z,5.25
2024-02-19T14:19:31.363Z,5.14
2024-02-19T14:22:16.347Z,4.97
2024-02-19T14:25:01.584Z,4.97
2024-02-19T14:27:47.141Z,4.89
2024-02-19T14:30:32.567Z,4.74
2024-02-19T14:33:17.658Z,4.45
2024-02-19T14:36:02.978Z,4.46
2024-02-19T14:38:48.232Z,4.33
2024-02-19T14:41:33.179Z,4.14
2024-02-19T14:44:17.938Z,3.94
2024-02-19T14:47:07.069Z,3.88
2024-02-19T14:49:52.647Z,3.75
2024-02-19T14:52:37.794Z,3.66
2024-02-19T14:55:22.630Z,3.60
2024-02-19T14:58:08.245Z,3.53
2024-02-19T15:00:53.518Z,3.47
2024-02-19T15:03:38.529Z,3.36
2024-02-19T15:06:23.540Z,3.30
2024-02-19T15:09:09.913Z,3.23
2024-02-19T15:11:54.752Z,3.18
2024-02-19T15:14:40.542Z,3.11
2024-02-19T15:17:26.352Z,3.03
2024-02-19T15:20:12.582Z,3.00
2024-02-19T15:22:58.184Z,2.95
2024-02-19T15:25:43.315Z,2.84
2024-02-19T15:28:28.450Z,2.70
2024-02-19T15:31:14.063Z,2.76
2024-02-19T15:33:59.418Z,2.74
2024-02-19T15:36:44.434Z,2.66
2024-02-19T15:39:31.101Z,2.52
2024-02-19T15:42:15.957Z,2.62
2024-02-19T15:45:00.824Z,2.61
2024-02-19T15:47:46.366Z,2.36
2024-02-19T15:50:32.953Z,2.28
2024-02-19T15:53:24.783Z,2.42
2024-02-19T15:56:14.008Z,2.12
2024-02-19T15:58:58.685Z,2.11
2024-02-19T16:01:45.249Z,2.14
2024-02-19T16:04:30.649Z,2.04
2024-02-19T16:07:15.790Z,2.10
2024-02-19T16:10:00.771Z,2.03
2024-02-19T16:12:45.706Z,2.05
2024-02-19T16:15:32.520Z,1.84
2024-02-19T16:18:29.157Z,1.85
2024-02-19T16:21:41.399Z,1.77
2024-02-19T16:24:40.580Z,1.90
2024-02-19T16:27:36.077Z,1.77
2024-02-19T16:30:21.086Z,1.85
2024-02-19T16:33:05.917Z,1.85
2024-02-19T16:35:51.449Z,1.74
2024-02-19T16:38:41.654Z,1.63
2024-02-19T16:41:26.665Z,1.59
2024-02-19T16:44:11.754Z,1.51
2024-02-19T16:46:56.427Z,1.47
2024-02-19T16:49:44.127Z,1.40
2024-02-19T16:52:29.256Z,1.28
2024-02-19T16:55:13.941Z,1.20
2024-02-19T16:57:59.509Z,1.12
2024-02-19T17:00:47.575Z,1.05
2024-02-19T17:03:33.046Z,1.08
2024-02-19T17:06:17.909Z,1.09
2024-02-19T17:09:06.088Z,1.04
2024-02-19T17:11:50.719Z,0.98
2024-02-19T17:14:35.453Z,0.99
2024-02-19T17:17:20.137Z,0.99
2024-02-19T17:20:05.936Z,0.90
2024-02-19T17:22:51.898Z,0.89
2024-02-19T17:25:37.260Z,0.89
2024-02-19T17:28:22.894Z,0.84
2024-02-19T17:31:08.835Z,0.91
2024-02-19T17:33:54.092Z,0.80
2024-02-19T17:36:39.332Z,0.79
2024-02-19T17:39:26.684Z,0.61
2024-02-19T17:42:11.499Z,0.72
2024-02-19T17:44:56.815Z,0.59
2024-02-19T17:47:41.418Z,0.71
2024-02-19T17:50:26.672Z,0.65
2024-02-19T17:53:12.275Z,0.72
2024-02-19T17:55:56.919Z,0.79
2024-02-19T17:58:42.314Z,0.85
2024-02-19T18:01:27.497Z,0.77
2024-02-19T18:04:13.006Z,0.78
2024-02-19T18:07:00.787Z,0.79
2024-02-19T18:09:45.402Z,0.78
2024-02-19T18:12:30.490Z,0.70
2024-02-19T18:15:21.699Z,0.76
2024-02-19T18:18:06.553Z,0.66
2024-02-19T18:20:52.219Z,0.63
2024-02-19T18:23:37.481Z,0.68
2024-02-19T18:26:24.553Z,0.67
2024-02-19T18:29:14.679Z,0.58
2024-02-19T18:32:01.071Z,0.66
2024-02-19T18:34:47.158Z,0.72
2024-02-19T18:37:32.307Z,0.70
2024-02-19T18:40:17.007Z,0.74
2024-02-19T18:43:03.033Z,0.71
2024-02-19T18:45:48.183Z,0.78
2024-02-19T18:48:34.827Z,0.80
2024-02-19T18:51:19.568Z,0.83
2024-02-19T18:54:04.595Z,0.87
2024-02-19T18:56:49.140Z,0.97
2024-02-19T18:59:37.388Z,0.91
2024-02-19T19:02:22.359Z,1.06
2024-02-19T19:05:07.622Z,1.09
2024-02-19T19:07:53.015Z,1.13
2024-02-19T19:10:37.929Z,1.14
2024-02-19T19:13:23.466Z,1.19
2024-02-19T19:16:08.144Z,1.14
2024-02-19T19:18:53.232Z,1.13
2024-02-19T19:21:38.395Z,1.17
2024-02-19T19:24:23.530Z,1.14
2024-02-19T19:27:08.280Z,1.19
2024-02-19T19:29:54.088Z,1.19
2024-02-19T19:32:39.793Z,1.19
2024-02-19T19:35:27.182Z,1.24
2024-02-19T19:38:12.502Z,1.30
2024-02-19T19:40:57.671Z,1.43
2024-02-19T19:43:42.667Z,1.43
2024-02-19T19:46:27.845Z,1.36
2024-02-19T19:49:17.174Z,1.42
2024-02-19T19:52:02.025Z,1.30
2024-02-19T19:54:47.424Z,1.51
2024-02-19T19:57:32.440Z,1.53
2024-02-19T20:00:20.783Z,1.54
2024-02-19T20:03:06.062Z,1.59
2024-02-19T20:05:51.360Z,1.61
2024-02-19T20:08:36.339Z,1.54
2024-02-19T20:11:22.167Z,1.64
2024-02-19T20:14:07.452Z,1.66
2024-02-19T20:16:52.555Z,1.70
2024-02-19T20:19:37.481Z,1.65
2024-02-19T20:22:22.367Z,1.78
2024-02-19T20:25:07.975Z,1.81
2024-02-19T20:27:54.323Z,1.80
2024-02-19T20:30:39.354Z,1.88
2024-02-19T20:33:24.442Z,1.89
2024-02-19T20:36:11.081Z,1.92
2024-02-19T20:38:57.451Z,1.89
2024-02-19T20:41:43.336Z,1.89
2024-02-19T20:44:28.076Z,1.92
2024-02-19T20:47:13.703Z,1.93
2024-02-19T20:50:00.310Z,1.96
2024-02-19T20:52:46.352Z,2.01
2024-02-19T20:55:31.529Z,1.96
2024-02-19T20:58:17.014Z,2.01
2024-02-19T21:01:02.584Z,1.94
2024-02-19T21:03:50.065Z,2.04
2024-02-19T21:06:35.509Z,2.04
2024-02-19T21:09:21.275Z,2.10
2024-02-19T21:12:07.376Z,2.11
2024-02-19T21:14:52.343Z,2.14
2024-02-19T21:17:37.312Z,2.15
2024-02-19T21:20:22.284Z,2.11
2024-02-19T21:23:07.078Z,2.16
2024-02-19T21:25:52.381Z,2.10
2024-02-19T21:28:37.342Z,1.67
2024-02-19T21:31:22.208Z,1.61
2024-02-19T21:34:10.483Z,1.60
2024-02-19T21:36:58.127Z,1.66
2024-02-19T21:39:43.882Z,1.68
2024-02-19T21:42:29.804Z,1.72
2024-02-19T21:45:16.756Z,1.70
2024-02-19T21:48:01.800Z,1.72
2024-02-19T21:50:46.314Z,1.71
2024-02-19T21:53:31.478Z,1.76
2024-02-19T21:56:16.367Z,1.78
2024-02-19T21:59:01.620Z,1.78
2024-02-19T22:01:46.608Z,1.72
2024-02-19T22:04:31.685Z,1.68
2024-02-19T22:07:16.253Z,1.73
2024-02-19T22:10:03.554Z,1.75
2024-02-19T22:12:48.990Z,1.73
2024-02-19T22:15:33.836Z,1.76
2024-02-19T22:18:19.605Z,1.80
2024-02-19T22:21:04.949Z,1.78
2024-02-19T22:23:50.021Z,1.77
2024-02-19T22:26:34.894Z,1.84
2024-02-19T22:29:19.851Z,1.77
2024-02-19T22:32:06.117Z,1.76
2024-02-19T22:34:51.185Z,1.78
2024-02-19T22:37:36.605Z,1.77
2024-02-19T22:40:21.551Z,1.81
2024-02-19T22:43:09.791Z,1.81
2024-02-19T22:45:54.425Z,1.79
2024-02-19T22:48:39.338Z,1.82
2024-02-19T22:51:24.245Z,1.84
2024-02-19T22:54:12.241Z,1.82
2024-02-19T22:56:57.960Z,1.82
2024-02-19T22:59:43.919Z,1.88
2024-02-19T23:02:28.576Z,1.83
2024-02-19T23:05:14.471Z,1.78
2024-02-19T23:08:02.381Z,1.78
2024-02-19T23:10:47.172Z,1.81
2024-02-19T23:13:32.164Z,1.84
2024-02-19T23:16:16.760Z,1.83
2024-02-19T23:19:01.995Z,1.82
2024-02-19T23:21:46.762Z,1.83
2024-02-19T23:24:31.631Z,1.79
2024-02-19T23:27:16.779Z,1.78
2024-02-19T23:30:02.426Z,1.72
2024-02-19T23:32:47.657Z,1.69
2024-02-19T23:35:33.674Z,1.69
2024-02-19T23:38:20.900Z,1.69
2024-02-19T23:41:06.380Z,1.69
2024-02-19T23:43:50.886Z,1.64
2024-02-19T23:46:35.971Z,1.61
2024-02-19T23:49:21.063Z,1.59
2024-02-19T23:52:06.371Z,1.55
2024-02-19T23:54:51.088Z,1.57
2024-02-19T23:57:38.033Z,1.51
